Accueil
METAR-TAF:

METAR-TAF

Aéroports :

Wallis, France

Aérodrome de Wallis Hihifo

latitude: 13-14S, longitude: 176-10W, altitude: 23 m

Observation

Le bulletin a été fait il y a 32 minutes, à 22:00 UTC
Vent 6 kt de est/nord-est, variant entre nord-est et sud-est
Température 30°C
Humidité 70%
Pression 1011 hPa
Visibilité 10 km ou plus
Nuages épars à une hauteur de 1800 ft
Nuages épars à une hauteur de 28000 ft

METAR: NLWW 232200Z 07006KT 040V140 9999 SCT018 SCT280 30/24 Q1011

Heure: 10:32 (22:32 UTC)

Prévision

Le bulletin a été fait il y a 5 heures et 32 minutes, à 17:00 UTC
Prévision valable du 23 à 18 UTC au 24 à 18 UTC
Vent 8 kt de est
Visibilité 10 km ou plus
Nuages épars à une hauteur de 2000 ft

TAF: NLWW 231700Z 2318/2418 10008KT 9999 SCT020

Observations et prévisions météorologiques de plus de 4000 aéroports (messages METAR et TAF).

Les stations disponibles sont représentées par des disques jaunes et rouges sur la carte.

Passer la souris dessus pour voir le nom de la station.

Cliquer dessus pour voir les observations et prévisions météorologiques.

Pour changer de carte: cliquez sur les boutons verts avec une croix noire pour zoomer, sur le bouton vert avec un tiret pour effectuer un zoom arrière, ou sur les flèches vertes pour les cartes adjacentes.


METAR-TAF: